Time;durP1;ratioP1;P1;durP2;ratioP2;P2;SDS_P1;SDS_P2;PMS_P1;PMS_P2;Temp;Humidity;BMP_temperature;BMP_pressure;BME280_temperature;BME280_humidity;BME280_pressure;Samples;Min_cycle;Max_cycle;Signal;HPM_P1;HPM_P2
2023/08/18 00:02:20;;;;;;;4.15;1.30;;;16.40;99.90;;;;;;5097371;28;20044;-68
2023/08/18 00:04:46;;;;;;;4.68;1.15;;;16.50;99.90;;;;;;5086784;28;20067;-68
2023/08/18 00:07:12;;;;;;;2.13;1.10;;;16.50;99.90;;;;;;5083705;28;20036;-68
2023/08/18 00:09:37;;;;;;;3.38;0.90;;;16.50;99.90;;;;;;5085158;28;20051;-68
2023/08/18 00:12:05;;;;;;;5.22;1.25;;;16.40;99.90;;;;;;5065712;28;20039;-68
2023/08/18 00:14:31;;;;;;;3.60;1.23;;;16.40;99.90;;;;;;5084381;28;20086;-68
2023/08/18 00:16:56;;;;;;;2.95;1.30;;;16.40;99.90;;;;;;5079024;28;20385;-68
2023/08/18 00:19:22;;;;;;;5.88;1.65;;;16.40;99.90;;;;;;5067241;28;20043;-69
2023/08/18 00:21:48;;;;;;;3.65;0.93;;;16.50;99.90;;;;;;5083671;28;20180;-69
2023/08/18 00:24:13;;;;;;;1.95;0.75;;;16.50;99.90;;;;;;5082101;28;20035;-68
2023/08/18 00:26:39;;;;;;;5.28;0.75;;;16.50;99.90;;;;;;5064485;28;20043;-68
2023/08/18 00:29:04;;;;;;;3.70;1.00;;;16.50;99.90;;;;;;5064727;28;20049;-68
2023/08/18 00:31:30;;;;;;;3.80;0.80;;;16.40;99.90;;;;;;5084698;28;20048;-68
2023/08/18 00:33:56;;;;;;;2.67;1.38;;;16.40;99.90;;;;;;5084561;28;20050;-68
2023/08/18 00:36:22;;;;;;;2.78;1.13;;;16.50;99.90;;;;;;5063554;28;20119;-68
2023/08/18 00:38:47;;;;;;;2.20;0.73;;;16.40;99.90;;;;;;5087990;28;20036;-68
2023/08/18 00:41:13;;;;;;;1.52;0.77;;;16.40;99.90;;;;;;5086621;28;20127;-68
2023/08/18 00:43:39;;;;;;;5.43;0.85;;;16.40;99.90;;;;;;5074211;28;20029;-68
2023/08/18 00:46:05;;;;;;;4.05;0.77;;;16.40;99.90;;;;;;5091326;28;20052;-68
2023/08/18 00:48:31;;;;;;;3.10;0.45;;;16.40;99.90;;;;;;5064619;28;20044;-68
2023/08/18 00:50:58;;;;;;;3.55;0.82;;;16.40;99.90;;;;;;5085653;28;20032;-68
2023/08/18 00:53:24;;;;;;;2.45;0.77;;;16.40;99.90;;;;;;5069091;28;20048;-68
2023/08/18 00:55:51;;;;;;;3.45;0.90;;;16.40;99.90;;;;;;5100625;28;20036;-68
2023/08/18 00:58:17;;;;;;;1.13;0.65;;;16.30;99.90;;;;;;5085536;28;20500;-68
2023/08/18 01:00:44;;;;;;;3.67;1.35;;;16.30;99.90;;;;;;5086951;28;20048;-68
2023/08/18 01:03:10;;;;;;;2.67;1.23;;;16.40;99.90;;;;;;5086509;28;20485;-69
2023/08/18 01:05:36;;;;;;;3.00;0.70;;;16.30;99.90;;;;;;5087533;28;20085;-68
2023/08/18 01:08:02;;;;;;;2.33;0.90;;;16.30;99.90;;;;;;5066369;28;20036;-68
2023/08/18 01:10:31;;;;;;;3.60;1.17;;;16.30;99.90;;;;;;5076585;28;20044;-68
2023/08/18 01:13:20;;;;;;;5.05;0.90;;;16.30;99.90;;;;;;5086895;28;20391;-68
2023/08/18 01:15:48;;;;;;;5.90;0.98;;;16.30;99.90;;;;;;5065861;28;20049;-68
2023/08/18 01:18:15;;;;;;;1.85;0.77;;;16.40;99.90;;;;;;5085832;28;20444;-68
2023/08/18 01:20:40;;;;;;;4.40;1.10;;;16.30;99.90;;;;;;5099089;27;20094;-68
2023/08/18 01:23:07;;;;;;;1.30;0.80;;;16.30;99.90;;;;;;5072704;28;20028;-68
2023/08/18 01:25:33;;;;;;;8.10;1.10;;;16.30;99.90;;;;;;5075713;28;20094;-68
2023/08/18 01:28:02;;;;;;;2.00;0.70;;;16.30;99.90;;;;;;5056915;28;20072;-68
2023/08/18 01:30:35;;;;;;;2.03;1.25;;;16.30;99.90;;;;;;5062323;28;20130;-68
2023/08/18 01:33:11;;;;;;;1.58;0.65;;;16.30;99.90;;;;;;5080320;28;20043;-68
2023/08/18 01:35:39;;;;;;;4.05;0.93;;;16.30;99.90;;;;;;5060485;28;20044;-68
2023/08/18 01:38:05;;;;;;;5.38;0.90;;;16.30;99.90;;;;;;5071843;28;20074;-68
2023/08/18 01:40:31;;;;;;;4.13;1.02;;;16.30;99.90;;;;;;5066989;28;20036;-68
2023/08/18 01:42:58;;;;;;;4.28;1.40;;;16.20;99.90;;;;;;5054632;28;20036;-68
2023/08/18 01:45:24;;;;;;;3.58;1.25;;;16.20;99.90;;;;;;5068659;28;20055;-68
2023/08/18 01:47:49;;;;;;;4.65;1.30;;;16.50;99.90;;;;;;5082718;28;20024;-68
2023/08/18 01:50:15;;;;;;;3.70;1.00;;;16.30;99.90;;;;;;5067693;28;20525;-68
2023/08/18 01:52:40;;;;;;;2.92;0.70;;;16.20;99.90;;;;;;5048865;28;20544;-68
2023/08/18 01:55:06;;;;;;;3.97;1.20;;;16.30;99.90;;;;;;5067359;28;20040;-68
2023/08/18 01:57:32;;;;;;;2.25;1.02;;;16.30;99.90;;;;;;5102245;27;20040;-68
2023/08/18 01:59:57;;;;;;;3.35;0.90;;;16.30;99.90;;;;;;5069862;28;20394;-68
2023/08/18 02:02:23;;;;;;;1.90;0.88;;;16.30;99.90;;;;;;5081961;28;20456;-68
2023/08/18 02:04:49;;;;;;;3.40;0.93;;;16.30;99.90;;;;;;5082692;28;20612;-68
2023/08/18 02:07:14;;;;;;;3.38;0.88;;;16.20;99.90;;;;;;5081029;28;20042;-68
2023/08/18 02:09:40;;;;;;;3.40;1.00;;;16.20;99.90;;;;;;5063511;28;20123;-68
2023/08/18 02:12:06;;;;;;;4.32;0.98;;;16.20;99.90;;;;;;5082184;28;20071;-68
2023/08/18 02:14:32;;;;;;;5.65;1.20;;;16.30;99.90;;;;;;5079435;28;20031;-68
2023/08/18 02:16:58;;;;;;;4.20;1.23;;;16.30;99.90;;;;;;5078732;28;20052;-68
2023/08/18 02:19:23;;;;;;;5.40;1.00;;;16.20;99.90;;;;;;5081825;28;20039;-68
2023/08/18 02:21:49;;;;;;;3.03;1.08;;;16.20;99.90;;;;;;5079481;28;20478;-68
2023/08/18 02:24:14;;;;;;;3.60;1.10;;;16.30;99.90;;;;;;5079735;28;20049;-68
2023/08/18 02:26:40;;;;;;;2.80;0.95;;;16.30;99.90;;;;;;5061347;28;20502;-68
2023/08/18 02:29:06;;;;;;;3.22;0.98;;;16.20;99.90;;;;;;5064267;28;20067;-68
2023/08/18 02:31:32;;;;;;;2.58;1.05;;;16.20;99.90;;;;;;5061852;28;20439;-68
2023/08/18 02:33:57;;;;;;;2.53;1.30;;;16.20;99.90;;;;;;5081995;28;20129;-68
2023/08/18 02:36:23;;;;;;;2.28;0.90;;;16.20;99.90;;;;;;5061963;28;20036;-68
2023/08/18 02:38:49;;;;;;;2.85;1.25;;;16.20;99.90;;;;;;5080728;28;20066;-68
2023/08/18 02:41:16;;;;;;;2.58;0.90;;;16.20;99.90;;;;;;5068927;28;20459;-68
2023/08/18 02:43:47;;;;;;;2.08;1.20;;;16.20;99.90;;;;;;5079630;28;20036;-68
2023/08/18 02:46:13;;;;;;;3.80;1.20;;;16.20;99.90;;;;;;5069754;28;20410;-68
2023/08/18 02:48:38;;;;;;;2.85;1.13;;;16.20;99.90;;;;;;5080475;28;20036;-68
2023/08/18 02:51:08;;;;;;;5.82;1.55;;;16.10;99.90;;;;;;5060415;28;20498;-68
2023/08/18 02:53:35;;;;;;;3.92;1.50;;;16.20;99.90;;;;;;5060714;28;20040;-68
2023/08/18 02:56:02;;;;;;;1.85;1.08;;;16.20;99.90;;;;;;5062525;28;20491;-69
2023/08/18 02:58:28;;;;;;;4.30;1.10;;;16.20;99.90;;;;;;5083569;28;20501;-68
2023/08/18 03:01:02;;;;;;;4.53;1.35;;;16.20;99.90;;;;;;5065369;28;20095;-68
2023/08/18 03:03:27;;;;;;;2.70;1.42;;;16.20;99.90;;;;;;5082028;28;20055;-68
2023/08/18 03:05:53;;;;;;;9.90;2.10;;;16.20;99.90;;;;;;5077872;28;20040;-68
2023/08/18 03:08:19;;;;;;;5.28;2.22;;;16.20;99.90;;;;;;5065481;28;20770;-68
2023/08/18 03:10:54;;;;;;;6.45;2.78;;;16.30;99.90;;;;;;5081042;28;20067;-68
2023/08/18 03:13:19;;;;;;;6.22;1.80;;;16.20;99.90;;;;;;5080606;28;20050;-68
2023/08/18 03:15:45;;;;;;;5.00;2.28;;;16.20;99.90;;;;;;5080092;28;20037;-68
2023/08/18 03:18:10;;;;;;;3.58;2.30;;;16.10;99.90;;;;;;5081102;28;20032;-68
2023/08/18 03:20:36;;;;;;;5.40;2.13;;;16.20;99.90;;;;;;5060723;28;20085;-68
2023/08/18 03:23:02;;;;;;;5.78;2.38;;;16.20;99.90;;;;;;5081309;28;20032;-68
2023/08/18 03:25:27;;;;;;;5.10;2.70;;;16.20;99.90;;;;;;5079855;28;20046;-68
2023/08/18 03:27:53;;;;;;;12.88;3.03;;;16.20;99.90;;;;;;5063727;28;20111;-68
2023/08/18 03:30:18;;;;;;;6.43;2.80;;;16.20;99.90;;;;;;5065167;28;20055;-68
2023/08/18 03:32:44;;;;;;;6.43;2.70;;;16.20;99.90;;;;;;5080427;28;20036;-68
2023/08/18 03:35:09;;;;;;;7.00;2.33;;;16.20;99.90;;;;;;5079084;28;20031;-68
2023/08/18 03:37:35;;;;;;;5.68;2.20;;;16.20;99.90;;;;;;5064956;28;20048;-68
2023/08/18 03:40:04;;;;;;;8.05;2.58;;;16.20;99.90;;;;;;5092444;28;20094;-68
2023/08/18 03:42:29;;;;;;;5.57;2.25;;;16.20;99.90;;;;;;5062603;28;20043;-68
2023/08/18 03:44:55;;;;;;;8.43;2.67;;;16.20;99.90;;;;;;5081449;28;20039;-68
2023/08/18 03:47:21;;;;;;;6.50;2.35;;;16.20;99.90;;;;;;5076927;28;20067;-68
2023/08/18 03:49:46;;;;;;;5.68;3.00;;;16.10;99.90;;;;;;5092835;28;20109;-68
2023/08/18 03:52:12;;;;;;;4.60;2.17;;;16.20;99.90;;;;;;5095715;28;20071;-68
2023/08/18 03:54:37;;;;;;;8.20;3.50;;;16.20;99.90;;;;;;5080818;28;20131;-68
2023/08/18 03:57:03;;;;;;;8.02;3.35;;;16.20;99.90;;;;;;5060353;28;20090;-68
2023/08/18 03:59:29;;;;;;;5.18;2.15;;;16.60;99.90;;;;;;5080665;28;20109;-68
2023/08/18 04:01:54;;;;;;;7.10;2.30;;;16.30;99.90;;;;;;5064739;28;20390;-68
2023/08/18 04:04:20;;;;;;;4.75;2.63;;;16.20;99.90;;;;;;5081196;28;20150;-68
2023/08/18 04:06:45;;;;;;;7.00;2.70;;;16.20;99.90;;;;;;5082032;28;20044;-68
2023/08/18 04:09:15;;;;;;;6.63;2.92;;;16.20;99.90;;;;;;5083588;28;20043;-68
2023/08/18 04:11:42;;;;;;;7.47;2.38;;;16.20;99.90;;;;;;5078144;28;20063;-68
2023/08/18 04:14:09;;;;;;;9.60;2.90;;;16.20;99.90;;;;;;5070073;28;20040;-68
2023/08/18 04:16:35;;;;;;;5.10;3.00;;;16.20;99.90;;;;;;5065069;28;20039;-68
2023/08/18 04:19:01;;;;;;;4.57;2.88;;;16.30;99.90;;;;;;5081999;28;20432;-68
2023/08/18 04:21:27;;;;;;;5.45;2.92;;;16.30;99.90;;;;;;5084441;28;20035;-68
2023/08/18 04:23:53;;;;;;;4.28;2.53;;;16.30;99.90;;;;;;5083788;28;20044;-68
2023/08/18 04:26:19;;;;;;;6.50;3.47;;;16.20;99.90;;;;;;5085469;28;21029;-68
2023/08/18 04:28:46;;;;;;;10.65;3.13;;;16.30;99.90;;;;;;5082102;28;20490;-68
2023/08/18 04:31:12;;;;;;;7.53;2.95;;;16.30;99.90;;;;;;5064926;28;20036;-68
2023/08/18 04:33:37;;;;;;;6.55;2.85;;;16.30;99.90;;;;;;5083048;28;20092;-68
2023/08/18 04:36:03;;;;;;;9.45;3.53;;;16.20;99.90;;;;;;5084997;28;20040;-68
2023/08/18 04:38:29;;;;;;;7.22;3.60;;;16.20;99.90;;;;;;5083910;28;20074;-68
2023/08/18 04:40:59;;;;;;;5.13;2.95;;;16.20;99.90;;;;;;5083605;28;20028;-68
2023/08/18 04:43:26;;;;;;;5.93;3.20;;;16.40;99.90;;;;;;5053142;28;20043;-68
2023/08/18 04:45:52;;;;;;;8.48;3.35;;;16.30;99.90;;;;;;5084795;28;20044;-68
2023/08/18 04:48:21;;;;;;;7.13;3.38;;;16.30;99.90;;;;;;5086017;28;20044;-68
2023/08/18 04:50:47;;;;;;;7.25;3.20;;;16.30;99.90;;;;;;5053207;28;20129;-68
2023/08/18 04:53:12;;;;;;;5.88;3.13;;;16.30;99.90;;;;;;5084684;28;20501;-69
2023/08/18 04:55:39;;;;;;;5.53;3.28;;;16.50;99.90;;;;;;5083296;28;20079;-68
2023/08/18 04:58:05;;;;;;;5.18;3.28;;;16.30;99.90;;;;;;5086376;28;20040;-68
2023/08/18 05:00:30;;;;;;;6.07;3.53;;;16.30;99.90;;;;;;5064520;28;20494;-68
2023/08/18 05:02:56;;;;;;;10.05;4.78;;;16.30;99.90;;;;;;5062130;28;20043;-69
2023/08/18 05:05:22;;;;;;;7.35;3.28;;;16.30;99.90;;;;;;5067382;28;20047;-68
2023/08/18 05:07:47;;;;;;;6.40;3.50;;;16.30;99.90;;;;;;5083850;28;20254;-68
2023/08/18 05:10:13;;;;;;;6.88;3.92;;;16.30;99.90;;;;;;5085688;28;20036;-68
2023/08/18 05:12:38;;;;;;;7.57;4.22;;;16.40;99.90;;;;;;5087865;28;20060;-68
2023/08/18 05:15:05;;;;;;;5.88;3.80;;;16.40;99.90;;;;;;5085197;28;20110;-68
2023/08/18 05:17:30;;;;;;;5.15;4.07;;;16.40;99.90;;;;;;5066020;28;20054;-68
2023/08/18 05:19:56;;;;;;;5.47;4.15;;;16.40;99.90;;;;;;5082233;28;20036;-68
2023/08/18 05:22:22;;;;;;;5.05;3.60;;;16.40;99.90;;;;;;5084996;28;20033;-68
2023/08/18 05:24:48;;;;;;;5.55;4.00;;;16.40;99.90;;;;;;5082664;28;20369;-68
2023/08/18 05:27:15;;;;;;;7.25;4.22;;;16.40;99.90;;;;;;5082410;28;20466;-68
2023/08/18 05:29:40;;;;;;;6.95;4.10;;;16.40;99.90;;;;;;5085467;28;20040;-68
2023/08/18 05:32:06;;;;;;;5.72;3.53;;;16.40;99.90;;;;;;5087579;28;20028;-68
2023/08/18 05:34:31;;;;;;;7.75;4.05;;;16.40;99.90;;;;;;5085877;28;20048;-68
2023/08/18 05:36:57;;;;;;;4.82;4.13;;;16.50;99.90;;;;;;5085055;28;20864;-68
2023/08/18 05:39:23;;;;;;;10.02;4.63;;;16.40;99.90;;;;;;5083033;28;20097;-68
2023/08/18 05:41:48;;;;;;;10.38;3.80;;;16.40;99.90;;;;;;5085269;28;20040;-68
2023/08/18 05:44:14;;;;;;;5.13;3.97;;;16.40;99.90;;;;;;5083796;28;20127;-68
2023/08/18 05:46:40;;;;;;;6.43;4.30;;;16.50;99.90;;;;;;5082056;28;20127;-68
2023/08/18 05:49:07;;;;;;;7.40;4.82;;;16.50;99.90;;;;;;5066435;28;20044;-68
2023/08/18 05:51:32;;;;;;;7.93;5.05;;;16.50;99.90;;;;;;5084241;28;20043;-68
2023/08/18 05:53:58;;;;;;;5.60;4.85;;;16.50;99.90;;;;;;5065933;28;20078;-68
2023/08/18 05:56:24;;;;;;;8.13;4.93;;;16.50;99.90;;;;;;5080506;28;20119;-68
2023/08/18 05:58:49;;;;;;;7.38;5.13;;;16.50;99.90;;;;;;5066603;28;20039;-68
2023/08/18 06:01:15;;;;;;;13.63;5.75;;;16.40;99.90;;;;;;5100784;27;20036;-68
2023/08/18 06:03:42;;;;;;;10.32;6.07;;;16.50;99.90;;;;;;5084046;28;20044;-68
2023/08/18 06:06:08;;;;;;;6.68;6.00;;;16.50;99.90;;;;;;5080562;28;20593;-67
2023/08/18 06:08:33;;;;;;;10.82;5.88;;;16.40;99.90;;;;;;5084153;28;20469;-67
2023/08/18 06:10:59;;;;;;;11.10;6.22;;;16.50;99.90;;;;;;5081272;28;20043;-67
2023/08/18 06:13:25;;;;;;;9.02;5.65;;;16.50;99.90;;;;;;5083746;28;20075;-68
2023/08/18 06:15:57;;;;;;;11.18;7.40;;;16.50;99.90;;;;;;5081837;28;20123;-68
2023/08/18 06:18:23;;;;;;;12.00;7.53;;;16.50;99.90;;;;;;5085085;28;20036;-68
2023/08/18 06:20:50;;;;;;;18.67;8.27;;;16.50;99.90;;;;;;5081858;28;20043;-68
2023/08/18 06:23:16;;;;;;;16.88;8.50;;;16.50;99.90;;;;;;5084964;28;20070;-68
2023/08/18 06:25:41;;;;;;;14.20;8.90;;;16.40;99.90;;;;;;5065416;28;20076;-68
2023/08/18 06:28:07;;;;;;;12.02;7.90;;;16.50;99.90;;;;;;5065993;28;20102;-68
2023/08/18 06:30:32;;;;;;;13.15;8.45;;;16.50;99.90;;;;;;5095027;27;20131;-67
2023/08/18 06:32:58;;;;;;;13.85;8.15;;;16.50;99.90;;;;;;5063441;28;20461;-68
2023/08/18 06:35:24;;;;;;;17.67;9.35;;;16.50;99.90;;;;;;5065009;28;20129;-68
2023/08/18 06:37:49;;;;;;;13.40;8.50;;;16.50;99.90;;;;;;5066564;28;20046;-68
2023/08/18 06:40:15;;;;;;;14.90;9.20;;;16.40;99.90;;;;;;5067348;28;20043;-68
2023/08/18 06:42:41;;;;;;;15.15;8.68;;;16.40;99.90;;;;;;5101248;27;20109;-68
2023/08/18 06:45:07;;;;;;;16.83;8.88;;;16.50;99.90;;;;;;5100636;27;20035;-68
2023/08/18 06:47:33;;;;;;;15.27;9.05;;;16.50;99.90;;;;;;5085309;28;20040;-68
2023/08/18 06:49:59;;;;;;;12.80;9.10;;;16.50;99.90;;;;;;5071263;28;20067;-68
2023/08/18 06:52:26;;;;;;;14.02;9.10;;;16.60;99.90;;;;;;5065558;28;20072;-68
2023/08/18 06:54:52;;;;;;;16.92;8.82;;;16.60;99.90;;;;;;5069196;28;20048;-67
2023/08/18 06:57:17;;;;;;;16.17;9.27;;;16.60;99.90;;;;;;5068715;28;20040;-68
2023/08/18 06:59:43;;;;;;;17.48;9.18;;;16.60;99.90;;;;;;5067065;28;20040;-68
2023/08/18 07:02:09;;;;;;;18.45;9.98;;;16.60;99.90;;;;;;5069473;28;20373;-68
2023/08/18 07:04:34;;;;;;;22.33;9.77;;;16.60;99.90;;;;;;5083787;28;20502;-68
2023/08/18 07:07:00;;;;;;;16.10;8.32;;;16.70;99.90;;;;;;5085323;28;20571;-68
2023/08/18 07:09:25;;;;;;;19.23;8.18;;;16.70;99.90;;;;;;5085529;28;20543;-68
2023/08/18 07:11:51;;;;;;;15.02;8.13;;;16.80;99.90;;;;;;5082570;28;20044;-68
2023/08/18 07:14:16;;;;;;;13.45;7.28;;;16.80;99.90;;;;;;5068417;28;20035;-68
2023/08/18 07:16:43;;;;;;;15.52;8.02;;;16.80;99.90;;;;;;5084332;28;20044;-68
2023/08/18 07:19:08;;;;;;;21.58;9.50;;;16.90;99.90;;;;;;5084340;28;20512;-68
2023/08/18 07:21:34;;;;;;;20.25;8.15;;;16.90;99.90;;;;;;5084811;28;20028;-68
2023/08/18 07:24:00;;;;;;;17.60;8.65;;;17.00;99.90;;;;;;5066554;28;20081;-68
2023/08/18 07:26:26;;;;;;;16.83;7.75;;;17.20;99.90;;;;;;5100585;28;20047;-68
2023/08/18 07:28:52;;;;;;;14.50;7.15;;;17.00;99.90;;;;;;5049359;28;20375;-67
2023/08/18 07:31:17;;;;;;;18.58;7.80;;;17.10;99.90;;;;;;5082724;28;21007;-68
2023/08/18 07:33:43;;;;;;;19.10;7.60;;;17.10;99.90;;;;;;5082842;28;20036;-68
2023/08/18 07:36:09;;;;;;;17.27;7.43;;;17.30;99.90;;;;;;5067411;28;20052;-68
2023/08/18 07:38:34;;;;;;;16.20;8.00;;;17.20;99.90;;;;;;5064261;28;20028;-68
2023/08/18 07:41:00;;;;;;;20.38;9.45;;;17.10;99.90;;;;;;5082338;28;20089;-67
2023/08/18 07:43:26;;;;;;;15.15;7.70;;;17.20;99.90;;;;;;5085242;28;20032;-68
2023/08/18 07:45:51;;;;;;;14.88;8.35;;;17.10;99.90;;;;;;5066920;28;20064;-68
2023/08/18 07:48:17;;;;;;;19.90;9.18;;;17.20;99.90;;;;;;5084394;28;20036;-68
2023/08/18 07:50:43;;;;;;;16.55;8.20;;;17.20;99.90;;;;;;5102680;27;20051;-68
2023/08/18 07:53:09;;;;;;;14.82;7.75;;;17.20;99.90;;;;;;5082571;28;20854;-68
2023/08/18 07:55:36;;;;;;;16.40;8.63;;;17.20;99.90;;;;;;5064238;28;20043;-68
2023/08/18 07:58:03;;;;;;;15.35;8.27;;;17.20;99.90;;;;;;5067247;28;20048;-68
2023/08/18 08:00:30;;;;;;;16.20;8.48;;;17.20;99.90;;;;;;5067339;28;20040;-68
2023/08/18 08:02:57;;;;;;;14.02;7.45;;;17.30;99.90;;;;;;5071280;28;20604;-68
2023/08/18 08:05:22;;;;;;;16.15;7.88;;;17.40;99.90;;;;;;5080510;28;20053;-68
2023/08/18 08:07:49;;;;;;;17.10;7.95;;;17.50;99.90;;;;;;5084806;28;20044;-68
2023/08/18 08:10:15;;;;;;;18.38;8.65;;;17.50;99.90;;;;;;5065327;28;20050;-68
2023/08/18 08:12:41;;;;;;;20.45;7.65;;;17.60;99.90;;;;;;5064759;28;20074;-67
2023/08/18 08:15:09;;;;;;;13.43;8.00;;;17.60;99.90;;;;;;5082407;28;20040;-68
2023/08/18 08:17:34;;;;;;;18.50;8.25;;;17.70;99.90;;;;;;5065961;28;20154;-68
2023/08/18 08:20:05;;;;;;;15.35;7.70;;;17.80;99.90;;;;;;5084391;28;20111;-68
2023/08/18 08:22:31;;;;;;;15.88;7.38;;;17.80;99.90;;;;;;5068854;28;20040;-68
2023/08/18 08:24:57;;;;;;;17.83;7.32;;;17.90;99.90;;;;;;5084122;28;20051;-68
2023/08/18 08:27:23;;;;;;;13.52;7.25;;;17.80;99.90;;;;;;5065530;28;20048;-68
2023/08/18 08:29:49;;;;;;;17.67;7.32;;;18.00;99.90;;;;;;5065116;28;20110;-68
2023/08/18 08:32:14;;;;;;;16.35;7.53;;;17.90;99.90;;;;;;5067059;28;20470;-68
2023/08/18 08:34:47;;;;;;;15.77;6.55;;;18.00;99.90;;;;;;5085011;28;20059;-68
2023/08/18 08:37:12;;;;;;;18.55;7.05;;;18.00;99.90;;;;;;5066689;28;20063;-68
2023/08/18 08:39:38;;;;;;;12.82;7.00;;;18.00;99.90;;;;;;5066346;28;20042;-68
2023/08/18 08:42:04;;;;;;;16.15;6.95;;;18.00;99.90;;;;;;5084321;28;20482;-68
2023/08/18 08:44:30;;;;;;;10.65;6.20;;;18.00;99.90;;;;;;5081985;28;20709;-68
2023/08/18 08:46:56;;;;;;;12.00;7.00;;;18.00;99.90;;;;;;5086035;28;20071;-67
2023/08/18 08:49:23;;;;;;;12.57;6.57;;;18.10;99.90;;;;;;5064219;28;20094;-67
2023/08/18 08:51:51;;;;;;;12.88;7.25;;;18.10;99.90;;;;;;5073650;28;20135;-67
2023/08/18 08:54:20;;;;;;;11.43;6.05;;;18.20;99.90;;;;;;5071018;28;20052;-68
2023/08/18 08:56:47;;;;;;;18.85;7.47;;;18.30;99.90;;;;;;5065835;28;20123;-67
2023/08/18 08:59:15;;;;;;;14.10;6.63;;;18.40;99.90;;;;;;5084598;28;20494;-68
2023/08/18 09:01:41;;;;;;;13.70;6.47;;;18.50;99.90;;;;;;5070768;28;20044;-68
2023/08/18 09:04:08;;;;;;;14.75;8.93;;;18.60;99.90;;;;;;5068064;28;20568;-67
2023/08/18 09:06:33;;;;;;;12.68;6.82;;;18.70;99.90;;;;;;5066907;28;20139;-67
2023/08/18 09:09:00;;;;;;;13.95;6.72;;;18.90;99.90;;;;;;5084681;28;20109;-68
2023/08/18 09:11:42;;;;;;;11.77;6.80;;;18.70;99.90;;;;;;5068694;28;20917;-68
2023/08/18 09:14:08;;;;;;;16.10;7.70;;;18.80;99.90;;;;;;5085355;28;20083;-68
2023/08/18 09:16:34;;;;;;;13.18;5.75;;;18.90;99.90;;;;;;5085836;28;20040;-68
2023/08/18 09:19:01;;;;;;;15.02;7.00;;;18.90;99.90;;;;;;5068259;28;20042;-68
2023/08/18 09:21:26;;;;;;;12.70;7.18;;;19.00;99.90;;;;;;5068012;28;20540;-68
2023/08/18 09:23:56;;;;;;;13.80;7.45;;;19.00;99.90;;;;;;5057748;28;20043;-68
2023/08/18 09:26:22;;;;;;;10.88;6.35;;;19.00;99.90;;;;;;5084416;28;20119;-68
2023/08/18 09:28:47;;;;;;;17.55;7.43;;;19.10;99.90;;;;;;5066341;28;20123;-68
2023/08/18 09:31:13;;;;;;;13.32;7.32;;;19.20;99.90;;;;;;5088563;28;20132;-68
2023/08/18 09:33:39;;;;;;;12.27;6.78;;;19.30;99.90;;;;;;5087762;28;20382;-68
2023/08/18 09:36:04;;;;;;;15.18;7.53;;;19.30;99.90;;;;;;5068645;28;20576;-68
2023/08/18 09:38:40;;;;;;;14.38;7.40;;;19.40;99.90;;;;;;5083105;28;20468;-68
2023/08/18 09:41:07;;;;;;;11.05;7.65;;;19.50;99.90;;;;;;5087326;28;20119;-68
2023/08/18 09:43:33;;;;;;;13.32;8.00;;;19.50;99.90;;;;;;5086291;28;20035;-68
2023/08/18 09:46:03;;;;;;;15.43;8.30;;;19.40;99.90;;;;;;5054769;28;20036;-68
2023/08/18 09:48:35;;;;;;;11.68;7.00;;;19.50;99.90;;;;;;5069347;28;20055;-68
2023/08/18 09:51:03;;;;;;;12.85;7.80;;;19.40;99.90;;;;;;5102007;27;20053;-68
2023/08/18 09:53:33;;;;;;;12.73;7.13;;;19.40;99.90;;;;;;5086070;28;20048;-68
2023/08/18 09:56:09;;;;;;;17.38;8.50;;;19.40;99.90;;;;;;5089708;28;20402;-68
2023/08/18 09:58:54;;;;;;;12.93;7.88;;;19.40;99.90;;;;;;5084579;28;20040;-68
2023/08/18 10:01:21;;;;;;;;;;;19.50;99.90;;;;;;5076984;28;20048;-68
2023/08/18 10:03:47;;;;;;;13.27;7.95;;;19.50;99.90;;;;;;5068222;28;19924;-68
2023/08/18 10:06:16;;;;;;;17.70;7.32;;;19.60;99.90;;;;;;5083700;28;20177;-68
2023/08/18 10:08:42;;;;;;;11.32;7.38;;;19.60;99.90;;;;;;5085913;28;20066;-68
2023/08/18 10:11:09;;;;;;;10.48;7.72;;;19.60;99.90;;;;;;5068299;28;20048;-68
2023/08/18 10:13:35;;;;;;;13.80;6.75;;;19.60;99.90;;;;;;5066576;28;20084;-68
2023/08/18 10:16:03;;;;;;;13.52;6.55;;;19.50;99.90;;;;;;5068018;28;20773;-68
2023/08/18 10:18:30;;;;;;;12.68;7.60;;;19.70;99.90;;;;;;5102769;27;20127;-68
2023/08/18 10:20:56;;;;;;;9.73;6.63;;;19.70;99.90;;;;;;5085481;28;20020;-68
2023/08/18 10:23:30;;;;;;;11.82;6.55;;;19.80;99.90;;;;;;5086204;28;20044;-68
2023/08/18 10:25:57;;;;;;;11.93;6.65;;;19.90;99.90;;;;;;5083427;28;20032;-68
2023/08/18 10:28:27;;;;;;;8.02;5.80;;;20.00;99.90;;;;;;5101491;27;20059;-68
2023/08/18 10:31:03;;;;;;;10.77;7.03;;;19.90;99.90;;;;;;5068118;28;20040;-68
2023/08/18 10:33:38;;;;;;;12.95;6.85;;;19.90;99.90;;;;;;5082224;28;20036;-68
2023/08/18 10:36:05;;;;;;;10.38;6.35;;;20.00;99.90;;;;;;5084656;28;20037;-68
2023/08/18 10:38:33;;;;;;;11.30;5.85;;;20.10;99.90;;;;;;5064973;28;20040;-68
2023/08/18 10:40:59;;;;;;;9.43;6.80;;;20.30;99.90;;;;;;5068688;28;20032;-68
2023/08/18 10:43:27;;;;;;;10.98;6.68;;;20.20;99.90;;;;;;5069101;28;20125;-68
2023/08/18 10:45:59;;;;;;;8.77;6.00;;;20.40;99.90;;;;;;5061850;28;20569;-68
2023/08/18 10:48:29;;;;;;;8.18;6.03;;;20.40;99.90;;;;;;5084536;28;20058;-68
2023/08/18 10:50:55;;;;;;;9.15;6.93;;;20.50;99.90;;;;;;5062958;28;20470;-68
2023/08/18 10:53:20;;;;;;;9.80;6.65;;;20.60;99.90;;;;;;5084457;28;20042;-67
2023/08/18 10:55:46;;;;;;;12.20;6.55;;;20.60;99.90;;;;;;5065972;28;20675;-68
2023/08/18 10:58:14;;;;;;;8.40;6.85;;;20.60;99.90;;;;;;5080229;28;21616;-68
2023/08/18 11:00:40;;;;;;;8.75;6.88;;;20.70;99.90;;;;;;5063003;28;20044;-68
2023/08/18 11:03:07;;;;;;;9.35;6.90;;;20.70;99.90;;;;;;5084730;28;20028;-68
2023/08/18 11:05:33;;;;;;;13.10;7.43;;;20.70;99.90;;;;;;5099646;27;20065;-68
2023/08/18 11:08:01;;;;;;;11.98;7.25;;;20.70;99.90;;;;;;5084231;28;20071;-68
2023/08/18 11:10:27;;;;;;;11.02;7.80;;;20.70;99.90;;;;;;5080601;28;20035;-68
2023/08/18 11:12:56;;;;;;;9.73;6.95;;;20.80;99.90;;;;;;5081275;28;20033;-68
2023/08/18 11:15:23;;;;;;;10.23;7.50;;;20.80;99.90;;;;;;5063487;28;20040;-68
2023/08/18 11:17:49;;;;;;;8.68;7.22;;;20.90;99.90;;;;;;5082775;28;20399;-68
2023/08/18 11:20:15;;;;;;;11.60;6.57;;;21.00;99.90;;;;;;5085381;28;20455;-68
2023/08/18 11:22:44;;;;;;;8.82;7.13;;;21.20;99.90;;;;;;5103235;27;20087;-68
2023/08/18 11:25:14;;;;;;;9.05;7.05;;;21.30;99.90;;;;;;5081620;28;20504;-68
2023/08/18 11:27:41;;;;;;;10.13;6.80;;;21.30;99.90;;;;;;5081701;28;20032;-68
2023/08/18 11:30:10;;;;;;;11.10;7.75;;;21.40;99.90;;;;;;5062372;28;20059;-68
2023/08/18 11:32:37;;;;;;;9.25;7.03;;;21.50;99.90;;;;;;5066962;28;20048;-68
2023/08/18 11:35:07;;;;;;;9.98;6.70;;;21.50;99.90;;;;;;5086628;28;20037;-69
2023/08/18 11:37:39;;;;;;;8.25;6.20;;;21.70;99.90;;;;;;5080990;28;20044;-68
2023/08/18 11:40:08;;;;;;;8.07;7.03;;;21.80;99.90;;;;;;5070567;28;20394;-68
2023/08/18 11:42:34;;;;;;;9.95;6.72;;;21.90;99.90;;;;;;5082839;28;20044;-68
2023/08/18 11:45:00;;;;;;;8.50;7.30;;;22.10;99.90;;;;;;5085180;28;20517;-68
2023/08/18 11:47:25;;;;;;;9.32;7.15;;;22.10;99.90;;;;;;5063909;28;20059;-68
2023/08/18 11:49:51;;;;;;;10.15;7.25;;;22.00;99.90;;;;;;5079173;28;20043;-68
2023/08/18 11:52:18;;;;;;;7.93;7.13;;;22.00;99.90;;;;;;5064197;28;20039;-68
2023/08/18 11:54:45;;;;;;;9.98;7.18;;;22.00;99.90;;;;;;5081963;28;20178;-68
2023/08/18 11:57:16;;;;;;;8.85;7.43;;;22.00;99.90;;;;;;5100057;28;20040;-68
2023/08/18 11:59:46;;;;;;;11.15;7.90;;;21.90;99.90;;;;;;5084218;28;20063;-68
2023/08/18 12:02:18;;;;;;;7.95;7.05;;;21.90;99.90;;;;;;5082597;28;20044;-68
2023/08/18 12:04:44;;;;;;;7.32;6.63;;;21.90;99.90;;;;;;5064780;28;20048;-68
2023/08/18 12:07:10;;;;;;;8.52;6.75;;;22.20;99.90;;;;;;5064055;28;20509;-68
2023/08/18 12:09:35;;;;;;;8.05;7.25;;;22.40;99.90;;;;;;5097745;28;20050;-68
2023/08/18 12:12:12;;;;;;;8.82;7.22;;;22.60;99.90;;;;;;5082294;28;20028;-68
2023/08/18 12:14:38;;;;;;;8.30;7.38;;;22.80;99.90;;;;;;5087067;28;20041;-68
2023/08/18 12:17:04;;;;;;;6.82;6.18;;;23.30;99.90;;;;;;5080844;28;20505;-68
2023/08/18 12:19:29;;;;;;;8.00;7.22;;;23.50;99.90;;;;;;5065193;28;20762;-68
2023/08/18 12:21:55;;;;;;;7.65;6.85;;;23.60;99.90;;;;;;5067366;28;20032;-68
2023/08/18 12:24:20;;;;;;;8.40;7.20;;;23.70;99.90;;;;;;5066691;28;20736;-68
2023/08/18 12:26:46;;;;;;;7.22;6.63;;;23.70;99.90;;;;;;5088016;28;20034;-68
2023/08/18 12:29:11;;;;;;;7.82;7.07;;;23.70;99.90;;;;;;5089596;28;20075;-68
2023/08/18 12:31:37;;;;;;;10.05;7.07;;;23.80;99.90;;;;;;5084827;28;20036;-68
2023/08/18 12:34:05;;;;;;;7.90;7.05;;;23.80;99.90;;;;;;5089067;28;20040;-68
2023/08/18 12:36:32;;;;;;;8.98;7.22;;;23.60;99.90;;;;;;5068592;28;20040;-68
2023/08/18 12:38:57;;;;;;;9.40;7.22;;;23.60;99.90;;;;;;5088545;28;20036;-68
2023/08/18 12:41:25;;;;;;;8.93;7.32;;;23.60;99.90;;;;;;5089483;28;20111;-68